sensor_id;sensor_type;location;lat;lon;timestamp;pressure;altitude;pressure_sealevel;temperature;humidity
17260;BME280;8746;49.230;9.220;2022-12-29T00:01:36;99421.72;;;7.94;79.41
17260;BME280;8746;49.230;9.220;2022-12-29T00:04:02;99425.38;;;7.90;79.31
17260;BME280;8746;49.230;9.220;2022-12-29T00:06:28;99416.22;;;8.00;79.44
17260;BME280;8746;49.230;9.220;2022-12-29T00:08:53;99426.41;;;8.09;78.41
17260;BME280;8746;49.230;9.220;2022-12-29T00:11:24;99418.00;;;7.99;79.17
17260;BME280;8746;49.230;9.220;2022-12-29T00:13:49;99409.97;;;8.04;79.20
17260;BME280;8746;49.230;9.220;2022-12-29T00:16:35;99411.72;;;8.03;79.55
17260;BME280;8746;49.230;9.220;2022-12-29T00:19:01;99413.16;;;8.12;79.01
17260;BME280;8746;49.230;9.220;2022-12-29T00:21:27;99399.78;;;8.18;78.73
17260;BME280;8746;49.230;9.220;2022-12-29T00:24:14;99402.44;;;8.17;78.96
17260;BME280;8746;49.230;9.220;2022-12-29T00:27:14;99396.19;;;8.21;78.78
17260;BME280;8746;49.230;9.220;2022-12-29T00:29:57;99391.94;;;8.39;77.95
17260;BME280;8746;49.230;9.220;2022-12-29T00:32:41;99396.25;;;8.42;77.98
17260;BME280;8746;49.230;9.220;2022-12-29T00:35:31;99395.03;;;8.50;77.86
17260;BME280;8746;49.230;9.220;2022-12-29T00:38:03;99399.72;;;8.42;77.87
17260;BME280;8746;49.230;9.220;2022-12-29T00:40:48;99405.31;;;8.57;77.30
17260;BME280;8746;49.230;9.220;2022-12-29T00:43:32;99397.53;;;8.54;76.95
17260;BME280;8746;49.230;9.220;2022-12-29T00:46:16;99405.41;;;8.54;77.76
17260;BME280;8746;49.230;9.220;2022-12-29T00:48:41;99399.78;;;8.63;76.93
17260;BME280;8746;49.230;9.220;2022-12-29T00:51:26;99397.38;;;8.79;76.57
17260;BME280;8746;49.230;9.220;2022-12-29T00:53:51;99404.91;;;8.66;76.92
17260;BME280;8746;49.230;9.220;2022-12-29T00:56:16;99408.91;;;8.54;78.18
17260;BME280;8746;49.230;9.220;2022-12-29T00:58:42;99417.41;;;8.61;77.89
17260;BME280;8746;49.230;9.220;2022-12-29T01:01:08;99415.28;;;8.48;78.22
17260;BME280;8746;49.230;9.220;2022-12-29T01:03:35;99408.97;;;8.53;78.64
17260;BME280;8746;49.230;9.220;2022-12-29T01:06:07;99423.06;;;8.52;78.85
17260;BME280;8746;49.230;9.220;2022-12-29T01:08:32;99433.19;;;8.61;79.78
17260;BME280;8746;49.230;9.220;2022-12-29T01:11:04;99427.25;;;8.56;80.10
17260;BME280;8746;49.230;9.220;2022-12-29T01:13:30;99425.34;;;8.59;79.49
17260;BME280;8746;49.230;9.220;2022-12-29T01:15:56;99435.03;;;8.59;79.93
17260;BME280;8746;49.230;9.220;2022-12-29T01:18:23;99436.22;;;8.72;79.21
17260;BME280;8746;49.230;9.220;2022-12-29T01:20:49;99440.56;;;8.73;79.67
17260;BME280;8746;49.230;9.220;2022-12-29T01:23:15;99447.78;;;8.68;80.13
17260;BME280;8746;49.230;9.220;2022-12-29T01:25:40;99441.63;;;8.69;80.20
17260;BME280;8746;49.230;9.220;2022-12-29T01:28:06;99457.03;;;8.78;81.74
17260;BME280;8746;49.230;9.220;2022-12-29T01:30:33;99451.03;;;8.75;83.10
17260;BME280;8746;49.230;9.220;2022-12-29T01:32:59;99446.38;;;8.81;84.24
17260;BME280;8746;49.230;9.220;2022-12-29T01:35:24;99442.41;;;8.71;84.74
17260;BME280;8746;49.230;9.220;2022-12-29T01:37:50;99449.75;;;8.63;85.76
17260;BME280;8746;49.230;9.220;2022-12-29T01:40:15;99458.72;;;8.57;87.36
17260;BME280;8746;49.230;9.220;2022-12-29T01:42:41;99453.19;;;8.41;89.33
17260;BME280;8746;49.230;9.220;2022-12-29T01:45:14;99457.78;;;8.36;90.95
17260;BME280;8746;49.230;9.220;2022-12-29T01:47:53;99453.56;;;8.32;92.13
17260;BME280;8746;49.230;9.220;2022-12-29T01:50:32;99452.75;;;8.30;92.57
17260;BME280;8746;49.230;9.220;2022-12-29T01:53:02;99451.97;;;8.28;93.90
17260;BME280;8746;49.230;9.220;2022-12-29T01:55:33;99441.03;;;8.16;95.25
17260;BME280;8746;49.230;9.220;2022-12-29T01:58:01;99442.00;;;8.14;95.98
17260;BME280;8746;49.230;9.220;2022-12-29T02:00:28;99437.06;;;8.05;96.89
17260;BME280;8746;49.230;9.220;2022-12-29T02:02:53;99431.06;;;8.02;97.50
17260;BME280;8746;49.230;9.220;2022-12-29T02:08:06;99427.94;;;7.91;98.58
17260;BME280;8746;49.230;9.220;2022-12-29T02:10:36;99429.59;;;8.17;95.93
17260;BME280;8746;49.230;9.220;2022-12-29T02:13:02;99420.06;;;8.37;94.71
17260;BME280;8746;49.230;9.220;2022-12-29T02:15:39;99421.44;;;8.47;94.11
17260;BME280;8746;49.230;9.220;2022-12-29T02:45:54;99396.78;;;8.72;92.25
17260;BME280;8746;49.230;9.220;2022-12-29T02:51:10;99396.63;;;8.55;90.91
17260;BME280;8746;49.230;9.220;2022-12-29T02:53:39;99387.44;;;8.65;88.58
17260;BME280;8746;49.230;9.220;2022-12-29T02:56:23;99390.13;;;8.63;88.36
17260;BME280;8746;49.230;9.220;2022-12-29T02:58:48;99387.25;;;8.47;88.54
17260;BME280;8746;49.230;9.220;2022-12-29T03:04:20;99383.34;;;8.36;89.06
17260;BME280;8746;49.230;9.220;2022-12-29T03:07:10;99382.72;;;8.29;88.97
17260;BME280;8746;49.230;9.220;2022-12-29T03:15:38;99377.34;;;8.32;88.17
17260;BME280;8746;49.230;9.220;2022-12-29T03:19:14;99376.81;;;8.24;88.84
17260;BME280;8746;49.230;9.220;2022-12-29T03:24:22;99379.69;;;8.17;88.71
17260;BME280;8746;49.230;9.220;2022-12-29T03:26:49;99383.06;;;8.19;88.06
17260;BME280;8746;49.230;9.220;2022-12-29T03:29:16;99392.00;;;8.15;87.86
17260;BME280;8746;49.230;9.220;2022-12-29T03:31:43;99382.31;;;8.17;88.92
17260;BME280;8746;49.230;9.220;2022-12-29T03:34:10;99381.75;;;8.09;90.95
17260;BME280;8746;49.230;9.220;2022-12-29T03:36:48;99376.63;;;7.82;93.48
17260;BME280;8746;49.230;9.220;2022-12-29T03:39:16;99382.28;;;7.72;94.59
17260;BME280;8746;49.230;9.220;2022-12-29T03:41:45;99369.91;;;7.75;95.44
17260;BME280;8746;49.230;9.220;2022-12-29T03:44:13;99362.16;;;7.72;96.13
17260;BME280;8746;49.230;9.220;2022-12-29T03:46:38;99358.28;;;7.59;96.40
17260;BME280;8746;49.230;9.220;2022-12-29T03:49:04;99356.66;;;7.54;97.31
17260;BME280;8746;49.230;9.220;2022-12-29T03:51:29;99365.50;;;7.52;97.63
17260;BME280;8746;49.230;9.220;2022-12-29T03:53:55;99377.03;;;7.48;97.78
17260;BME280;8746;49.230;9.220;2022-12-29T03:56:20;99363.00;;;7.49;97.74
17260;BME280;8746;49.230;9.220;2022-12-29T03:58:46;99373.44;;;7.50;97.67
17260;BME280;8746;49.230;9.220;2022-12-29T04:01:11;99362.03;;;7.51;97.76
17260;BME280;8746;49.230;9.220;2022-12-29T04:03:36;99367.16;;;7.54;96.88
17260;BME280;8746;49.230;9.220;2022-12-29T04:06:02;99377.66;;;7.54;96.52
17260;BME280;8746;49.230;9.220;2022-12-29T04:08:27;99380.88;;;7.63;95.85
17260;BME280;8746;49.230;9.220;2022-12-29T04:10:53;99365.28;;;7.58;96.10
17260;BME280;8746;49.230;9.220;2022-12-29T04:13:18;99359.25;;;7.56;96.66
17260;BME280;8746;49.230;9.220;2022-12-29T04:15:44;99362.81;;;7.53;96.43
17260;BME280;8746;49.230;9.220;2022-12-29T04:18:11;99346.28;;;7.51;96.18
17260;BME280;8746;49.230;9.220;2022-12-29T04:20:36;99344.63;;;7.49;96.88
17260;BME280;8746;49.230;9.220;2022-12-29T04:23:20;99339.78;;;7.38;97.50
17260;BME280;8746;49.230;9.220;2022-12-29T04:25:45;99345.25;;;7.32;97.96
17260;BME280;8746;49.230;9.220;2022-12-29T04:28:12;99336.00;;;7.21;98.16
17260;BME280;8746;49.230;9.220;2022-12-29T04:30:38;99326.00;;;7.08;99.03
17260;BME280;8746;49.230;9.220;2022-12-29T04:33:03;99335.06;;;6.99;99.65
17260;BME280;8746;49.230;9.220;2022-12-29T04:35:29;99320.53;;;6.88;100.00
17260;BME280;8746;49.230;9.220;2022-12-29T04:37:54;99318.25;;;6.79;99.96
17260;BME280;8746;49.230;9.220;2022-12-29T04:40:19;99319.16;;;6.78;99.96
17260;BME280;8746;49.230;9.220;2022-12-29T04:42:45;99316.84;;;6.69;100.00
17260;BME280;8746;49.230;9.220;2022-12-29T04:45:10;99321.53;;;6.61;100.00
17260;BME280;8746;49.230;9.220;2022-12-29T04:47:36;99323.28;;;6.60;100.00
17260;BME280;8746;49.230;9.220;2022-12-29T04:50:01;99309.41;;;6.56;100.00
17260;BME280;8746;49.230;9.220;2022-12-29T04:52:26;99317.47;;;6.50;100.00
17260;BME280;8746;49.230;9.220;2022-12-29T04:54:52;99327.06;;;6.51;100.00
17260;BME280;8746;49.230;9.220;2022-12-29T04:57:17;99317.53;;;6.49;100.00
17260;BME280;8746;49.230;9.220;2022-12-29T04:59:42;99321.13;;;6.46;100.00
17260;BME280;8746;49.230;9.220;2022-12-29T05:02:08;99324.50;;;6.50;100.00
17260;BME280;8746;49.230;9.220;2022-12-29T05:04:33;99321.69;;;6.54;100.00
17260;BME280;8746;49.230;9.220;2022-12-29T05:06:58;99314.44;;;6.63;100.00
17260;BME280;8746;49.230;9.220;2022-12-29T05:09:24;99306.50;;;6.66;100.00
17260;BME280;8746;49.230;9.220;2022-12-29T05:11:49;99307.34;;;6.66;100.00
17260;BME280;8746;49.230;9.220;2022-12-29T05:14:14;99317.81;;;6.66;100.00
17260;BME280;8746;49.230;9.220;2022-12-29T05:16:40;99320.44;;;6.66;100.00
17260;BME280;8746;49.230;9.220;2022-12-29T05:19:05;99321.50;;;6.86;98.44
17260;BME280;8746;49.230;9.220;2022-12-29T05:21:30;99317.69;;;6.96;98.47
17260;BME280;8746;49.230;9.220;2022-12-29T05:23:56;99320.00;;;7.04;97.06
17260;BME280;8746;49.230;9.220;2022-12-29T05:26:21;99313.94;;;7.27;95.12
17260;BME280;8746;49.230;9.220;2022-12-29T05:28:46;99306.69;;;7.34;95.19
17260;BME280;8746;49.230;9.220;2022-12-29T05:31:12;99316.75;;;7.46;94.05
17260;BME280;8746;49.230;9.220;2022-12-29T05:33:37;99316.47;;;7.76;92.01
17260;BME280;8746;49.230;9.220;2022-12-29T05:36:07;99319.91;;;7.78;91.71
17260;BME280;8746;49.230;9.220;2022-12-29T05:38:33;99315.75;;;7.95;90.91
17260;BME280;8746;49.230;9.220;2022-12-29T05:40:59;99319.19;;;7.97;90.81
17260;BME280;8746;49.230;9.220;2022-12-29T05:43:24;99323.63;;;7.95;90.98
17260;BME280;8746;49.230;9.220;2022-12-29T05:45:49;99317.59;;;8.15;89.72
17260;BME280;8746;49.230;9.220;2022-12-29T05:48:15;99311.06;;;8.03;90.78
17260;BME280;8746;49.230;9.220;2022-12-29T05:50:41;99320.91;;;7.98;91.59
17260;BME280;8746;49.230;9.220;2022-12-29T05:53:06;99315.19;;;7.86;91.58
17260;BME280;8746;49.230;9.220;2022-12-29T05:55:31;99304.56;;;7.90;91.70
17260;BME280;8746;49.230;9.220;2022-12-29T05:57:57;99307.88;;;7.95;91.51
17260;BME280;8746;49.230;9.220;2022-12-29T06:00:22;99328.09;;;7.93;91.43
17260;BME280;8746;49.230;9.220;2022-12-29T06:02:48;99308.66;;;7.97;91.33
17260;BME280;8746;49.230;9.220;2022-12-29T06:05:13;99305.91;;;8.00;90.80
17260;BME280;8746;49.230;9.220;2022-12-29T06:07:39;99307.50;;;8.04;90.37
17260;BME280;8746;49.230;9.220;2022-12-29T06:10:05;99307.28;;;8.10;90.23
17260;BME280;8746;49.230;9.220;2022-12-29T06:12:31;99318.34;;;8.18;90.58
17260;BME280;8746;49.230;9.220;2022-12-29T06:14:56;99313.72;;;8.24;90.12
17260;BME280;8746;49.230;9.220;2022-12-29T06:17:21;99317.38;;;8.19;90.14
17260;BME280;8746;49.230;9.220;2022-12-29T06:19:47;99319.41;;;8.35;89.75
17260;BME280;8746;49.230;9.220;2022-12-29T06:22:12;99310.13;;;8.26;89.72
17260;BME280;8746;49.230;9.220;2022-12-29T06:24:38;99308.81;;;8.37;90.20
17260;BME280;8746;49.230;9.220;2022-12-29T06:27:03;99310.91;;;8.50;88.96
17260;BME280;8746;49.230;9.220;2022-12-29T06:29:29;99303.69;;;8.76;87.91
17260;BME280;8746;49.230;9.220;2022-12-29T06:31:55;99297.25;;;8.84;87.04
17260;BME280;8746;49.230;9.220;2022-12-29T06:34:23;99297.91;;;8.89;87.04
17260;BME280;8746;49.230;9.220;2022-12-29T06:36:49;99303.97;;;8.91;86.44
17260;BME280;8746;49.230;9.220;2022-12-29T06:39:14;99288.34;;;9.26;84.84
17260;BME280;8746;49.230;9.220;2022-12-29T06:41:40;99292.69;;;9.27;84.72
17260;BME280;8746;49.230;9.220;2022-12-29T06:44:05;99292.13;;;9.39;83.42
17260;BME280;8746;49.230;9.220;2022-12-29T06:46:31;99287.94;;;9.35;83.60
17260;BME280;8746;49.230;9.220;2022-12-29T06:48:56;99290.19;;;9.44;83.35
17260;BME280;8746;49.230;9.220;2022-12-29T06:51:21;99292.53;;;9.51;82.83
17260;BME280;8746;49.230;9.220;2022-12-29T06:53:48;99287.25;;;9.51;83.26
17260;BME280;8746;49.230;9.220;2022-12-29T06:56:14;99290.00;;;9.48;83.32
17260;BME280;8746;49.230;9.220;2022-12-29T06:58:39;99293.72;;;9.43;83.94
17260;BME280;8746;49.230;9.220;2022-12-29T07:01:04;99295.84;;;9.35;84.17
17260;BME280;8746;49.230;9.220;2022-12-29T07:03:30;99287.94;;;9.35;84.19
17260;BME280;8746;49.230;9.220;2022-12-29T07:05:55;99301.91;;;9.37;84.26
17260;BME280;8746;49.230;9.220;2022-12-29T07:08:23;99295.84;;;9.35;83.97
17260;BME280;8746;49.230;9.220;2022-12-29T07:10:48;99286.09;;;9.56;82.96
17260;BME280;8746;49.230;9.220;2022-12-29T07:13:14;99280.69;;;9.59;82.93
17260;BME280;8746;49.230;9.220;2022-12-29T07:15:40;99280.97;;;9.53;83.10
17260;BME280;8746;49.230;9.220;2022-12-29T07:18:06;99287.50;;;9.63;82.42
17260;BME280;8746;49.230;9.220;2022-12-29T07:20:32;99294.78;;;9.58;83.00
17260;BME280;8746;49.230;9.220;2022-12-29T07:22:58;99288.22;;;9.67;83.15
17260;BME280;8746;49.230;9.220;2022-12-29T07:25:23;99284.09;;;9.61;83.10
17260;BME280;8746;49.230;9.220;2022-12-29T07:27:49;99283.34;;;9.59;83.50
17260;BME280;8746;49.230;9.220;2022-12-29T07:30:15;99285.69;;;9.66;82.41
17260;BME280;8746;49.230;9.220;2022-12-29T07:32:40;99295.03;;;9.71;82.13
17260;BME280;8746;49.230;9.220;2022-12-29T07:35:07;99302.47;;;9.63;82.88
17260;BME280;8746;49.230;9.220;2022-12-29T07:37:33;99306.03;;;9.62;82.67
17260;BME280;8746;49.230;9.220;2022-12-29T07:40:00;99300.59;;;9.65;82.60
17260;BME280;8746;49.230;9.220;2022-12-29T07:42:26;99317.72;;;9.75;82.44
17260;BME280;8746;49.230;9.220;2022-12-29T07:44:51;99310.44;;;9.81;81.53
17260;BME280;8746;49.230;9.220;2022-12-29T07:47:16;99310.94;;;9.89;81.53
17260;BME280;8746;49.230;9.220;2022-12-29T07:49:42;99311.84;;;10.07;80.44
17260;BME280;8746;49.230;9.220;2022-12-29T07:52:07;99304.69;;;10.09;79.81
17260;BME280;8746;49.230;9.220;2022-12-29T07:54:33;99298.88;;;10.02;80.19
17260;BME280;8746;49.230;9.220;2022-12-29T07:56:58;99298.81;;;10.21;79.38
17260;BME280;8746;49.230;9.220;2022-12-29T07:59:25;99300.13;;;10.13;79.40
17260;BME280;8746;49.230;9.220;2022-12-29T08:01:51;99302.94;;;10.27;78.31
17260;BME280;8746;49.230;9.220;2022-12-29T08:04:16;99302.31;;;10.22;79.07
17260;BME280;8746;49.230;9.220;2022-12-29T08:06:43;99309.31;;;10.23;78.88
17260;BME280;8746;49.230;9.220;2022-12-29T08:09:10;99298.75;;;10.23;78.35
17260;BME280;8746;49.230;9.220;2022-12-29T08:11:35;99311.06;;;10.41;77.15
17260;BME280;8746;49.230;9.220;2022-12-29T08:14:02;99302.66;;;10.51;76.46
17260;BME280;8746;49.230;9.220;2022-12-29T08:16:27;99309.25;;;10.42;77.49
17260;BME280;8746;49.230;9.220;2022-12-29T08:18:52;99310.06;;;10.44;77.14
17260;BME280;8746;49.230;9.220;2022-12-29T08:21:18;99322.53;;;10.40;76.58
17260;BME280;8746;49.230;9.220;2022-12-29T08:23:43;99321.81;;;10.37;77.29
17260;BME280;8746;49.230;9.220;2022-12-29T08:26:10;99312.25;;;10.34;77.40
17260;BME280;8746;49.230;9.220;2022-12-29T08:28:36;99314.81;;;10.36;77.07
17260;BME280;8746;49.230;9.220;2022-12-29T08:31:02;99320.59;;;10.44;76.90
17260;BME280;8746;49.230;9.220;2022-12-29T08:33:28;99321.13;;;10.51;76.27
17260;BME280;8746;49.230;9.220;2022-12-29T08:36:05;99323.22;;;10.44;76.38
17260;BME280;8746;49.230;9.220;2022-12-29T08:38:31;99315.63;;;10.38;76.95
17260;BME280;8746;49.230;9.220;2022-12-29T08:40:58;99323.31;;;10.42;76.75
17260;BME280;8746;49.230;9.220;2022-12-29T08:43:24;99323.50;;;10.57;75.47
17260;BME280;8746;49.230;9.220;2022-12-29T08:45:50;99330.00;;;10.50;75.62
17260;BME280;8746;49.230;9.220;2022-12-29T08:48:16;99332.06;;;10.61;75.70
17260;BME280;8746;49.230;9.220;2022-12-29T08:50:46;99336.34;;;10.46;76.15
17260;BME280;8746;49.230;9.220;2022-12-29T08:53:12;99331.41;;;10.57;75.52
17260;BME280;8746;49.230;9.220;2022-12-29T08:55:37;99343.88;;;10.53;75.87
17260;BME280;8746;49.230;9.220;2022-12-29T08:58:03;99338.66;;;10.52;76.08
17260;BME280;8746;49.230;9.220;2022-12-29T09:00:28;99352.31;;;10.42;76.60
17260;BME280;8746;49.230;9.220;2022-12-29T09:02:53;99355.38;;;10.33;77.49
17260;BME280;8746;49.230;9.220;2022-12-29T09:05:19;99354.09;;;10.42;76.92
17260;BME280;8746;49.230;9.220;2022-12-29T09:07:44;99360.63;;;10.33;77.47
17260;BME280;8746;49.230;9.220;2022-12-29T09:10:09;99364.19;;;10.32;77.46
17260;BME280;8746;49.230;9.220;2022-12-29T09:12:35;99361.72;;;10.29;78.50
17260;BME280;8746;49.230;9.220;2022-12-29T09:15:00;99359.09;;;10.29;77.55
17260;BME280;8746;49.230;9.220;2022-12-29T09:17:26;99363.00;;;10.39;76.70
17260;BME280;8746;49.230;9.220;2022-12-29T09:20:17;99355.19;;;10.38;77.49
17260;BME280;8746;49.230;9.220;2022-12-29T09:22:43;99365.38;;;10.26;77.85
17260;BME280;8746;49.230;9.220;2022-12-29T09:25:10;99361.88;;;10.26;77.89
17260;BME280;8746;49.230;9.220;2022-12-29T09:27:36;99363.50;;;10.29;78.13
17260;BME280;8746;49.230;9.220;2022-12-29T09:30:03;99364.50;;;10.26;77.34
17260;BME280;8746;49.230;9.220;2022-12-29T09:32:31;99362.03;;;10.23;77.37
17260;BME280;8746;49.230;9.220;2022-12-29T09:34:56;99364.06;;;10.35;76.63
17260;BME280;8746;49.230;9.220;2022-12-29T09:37:21;99368.56;;;10.33;77.13
17260;BME280;8746;49.230;9.220;2022-12-29T09:39:47;99356.94;;;10.37;76.73
17260;BME280;8746;49.230;9.220;2022-12-29T09:45:04;99350.22;;;10.49;76.63
17260;BME280;8746;49.230;9.220;2022-12-29T09:47:33;99354.88;;;10.44;76.68
17260;BME280;8746;49.230;9.220;2022-12-29T09:52:43;99348.25;;;10.72;75.87
17260;BME280;8746;49.230;9.220;2022-12-29T09:55:23;99357.31;;;10.66;75.50
17260;BME280;8746;49.230;9.220;2022-12-29T09:57:57;99353.88;;;10.64;75.40
17260;BME280;8746;49.230;9.220;2022-12-29T10:00:49;99361.66;;;10.85;75.63
17260;BME280;8746;49.230;9.220;2022-12-29T10:03:19;99350.78;;;10.91;76.13
17260;BME280;8746;49.230;9.220;2022-12-29T10:08:49;99361.31;;;11.26;74.42
17260;BME280;8746;49.230;9.220;2022-12-29T10:11:33;99361.19;;;11.45;72.84
17260;BME280;8746;49.230;9.220;2022-12-29T10:14:22;99366.00;;;11.70;73.23
17260;BME280;8746;49.230;9.220;2022-12-29T10:17:25;99374.22;;;11.82;73.73
17260;BME280;8746;49.230;9.220;2022-12-29T10:22:54;99377.59;;;11.68;75.72
17260;BME280;8746;49.230;9.220;2022-12-29T10:25:28;99378.78;;;11.62;76.57
17260;BME280;8746;49.230;9.220;2022-12-29T10:27:59;99385.00;;;11.61;76.34
17260;BME280;8746;49.230;9.220;2022-12-29T10:30:25;99376.91;;;11.64;76.29
17260;BME280;8746;49.230;9.220;2022-12-29T10:32:58;99375.63;;;11.71;75.54
17260;BME280;8746;49.230;9.220;2022-12-29T10:35:39;99387.84;;;11.90;74.44
17260;BME280;8746;49.230;9.220;2022-12-29T10:41:15;99394.59;;;11.96;75.36
17260;BME280;8746;49.230;9.220;2022-12-29T10:46:17;99392.25;;;11.58;79.00
17260;BME280;8746;49.230;9.220;2022-12-29T10:48:43;99398.69;;;11.52;79.75
17260;BME280;8746;49.230;9.220;2022-12-29T10:51:18;99400.03;;;11.43;81.07
17260;BME280;8746;49.230;9.220;2022-12-29T10:53:51;99403.09;;;11.35;82.02
17260;BME280;8746;49.230;9.220;2022-12-29T10:56:32;99401.13;;;11.39;82.00
17260;BME280;8746;49.230;9.220;2022-12-29T10:59:05;99404.75;;;11.36;83.56
17260;BME280;8746;49.230;9.220;2022-12-29T11:01:37;99405.63;;;11.37;83.04
17260;BME280;8746;49.230;9.220;2022-12-29T11:06:50;99413.69;;;11.34;81.42
17260;BME280;8746;49.230;9.220;2022-12-29T11:09:24;99430.59;;;11.14;84.74
17260;BME280;8746;49.230;9.220;2022-12-29T11:11:51;99418.13;;;10.63;88.11
17260;BME280;8746;49.230;9.220;2022-12-29T11:14:26;99425.44;;;10.39;91.62
17260;BME280;8746;49.230;9.220;2022-12-29T11:16:59;99424.38;;;10.24;93.32
17260;BME280;8746;49.230;9.220;2022-12-29T11:19:27;99415.38;;;10.28;92.71
17260;BME280;8746;49.230;9.220;2022-12-29T11:21:53;99410.66;;;10.35;93.24
17260;BME280;8746;49.230;9.220;2022-12-29T11:26:44;99419.50;;;10.53;93.71
17260;BME280;8746;49.230;9.220;2022-12-29T11:31:55;99410.66;;;10.54;91.31
17260;BME280;8746;49.230;9.220;2022-12-29T11:34:25;99399.50;;;10.49;93.29
17260;BME280;8746;49.230;9.220;2022-12-29T11:36:54;99400.13;;;10.54;93.70
17260;BME280;8746;49.230;9.220;2022-12-29T11:41:53;99396.84;;;10.49;92.40
17260;BME280;8746;49.230;9.220;2022-12-29T11:44:19;99398.88;;;10.44;93.04
17260;BME280;8746;49.230;9.220;2022-12-29T11:46:48;99407.44;;;10.47;92.10
17260;BME280;8746;49.230;9.220;2022-12-29T11:49:20;99408.16;;;10.51;92.95
17260;BME280;8746;49.230;9.220;2022-12-29T11:51:47;99405.53;;;10.51;91.82
17260;BME280;8746;49.230;9.220;2022-12-29T11:56:46;99392.13;;;10.55;91.35
17260;BME280;8746;49.230;9.220;2022-12-29T11:59:36;99399.91;;;10.76;91.31
17260;BME280;8746;49.230;9.220;2022-12-29T12:02:22;99394.41;;;10.81;89.97
17260;BME280;8746;49.230;9.220;2022-12-29T12:04:54;99395.19;;;10.83;90.46
17260;BME280;8746;49.230;9.220;2022-12-29T12:07:36;99401.69;;;10.93;90.13
17260;BME280;8746;49.230;9.220;2022-12-29T12:10:05;99392.06;;;10.92;89.88
17260;BME280;8746;49.230;9.220;2022-12-29T12:12:37;99395.97;;;11.02;89.89
17260;BME280;8746;49.230;9.220;2022-12-29T12:15:05;99384.69;;;11.16;89.66
17260;BME280;8746;49.230;9.220;2022-12-29T12:17:37;99377.47;;;11.20;88.53
17260;BME280;8746;49.230;9.220;2022-12-29T12:23:11;99365.38;;;11.16;86.39
17260;BME280;8746;49.230;9.220;2022-12-29T12:25:43;99371.25;;;11.21;85.60
17260;BME280;8746;49.230;9.220;2022-12-29T12:28:20;99370.66;;;11.16;84.75
17260;BME280;8746;49.230;9.220;2022-12-29T12:30:51;99373.72;;;11.24;84.08
17260;BME280;8746;49.230;9.220;2022-12-29T12:33:22;99371.75;;;11.45;82.42
17260;BME280;8746;49.230;9.220;2022-12-29T12:36:40;99365.09;;;11.38;82.85
17260;BME280;8746;49.230;9.220;2022-12-29T12:39:02;99359.84;;;11.54;81.72
17260;BME280;8746;49.230;9.220;2022-12-29T12:41:52;99351.34;;;11.65;80.35
17260;BME280;8746;49.230;9.220;2022-12-29T12:55:45;99356.47;;;11.84;77.73
17260;BME280;8746;49.230;9.220;2022-12-29T13:03:47;99358.00;;;11.88;75.81
17260;BME280;8746;49.230;9.220;2022-12-29T13:06:43;99361.41;;;11.90;75.66
17260;BME280;8746;49.230;9.220;2022-12-29T13:15:01;99329.66;;;12.08;74.88
17260;BME280;8746;49.230;9.220;2022-12-29T13:17:49;99336.47;;;12.12;73.66
17260;BME280;8746;49.230;9.220;2022-12-29T13:23:14;99330.03;;;12.16;72.52
17260;BME280;8746;49.230;9.220;2022-12-29T13:25:50;99329.19;;;12.15;72.46
17260;BME280;8746;49.230;9.220;2022-12-29T13:31:50;99321.94;;;12.19;72.25
17260;BME280;8746;49.230;9.220;2022-12-29T13:34:48;99327.66;;;12.27;71.58
17260;BME280;8746;49.230;9.220;2022-12-29T13:37:20;99327.47;;;12.30;71.43
17260;BME280;8746;49.230;9.220;2022-12-29T13:39:52;99329.72;;;12.22;72.21
17260;BME280;8746;49.230;9.220;2022-12-29T13:42:20;99325.50;;;12.34;71.86
17260;BME280;8746;49.230;9.220;2022-12-29T13:44:48;99329.53;;;12.25;72.40
17260;BME280;8746;49.230;9.220;2022-12-29T13:49:51;99332.63;;;12.01;73.73
17260;BME280;8746;49.230;9.220;2022-12-29T13:57:52;99337.81;;;11.87;75.20
17260;BME280;8746;49.230;9.220;2022-12-29T14:00:21;99348.38;;;11.87;74.87
17260;BME280;8746;49.230;9.220;2022-12-29T14:06:20;99350.91;;;11.73;76.28
17260;BME280;8746;49.230;9.220;2022-12-29T14:08:47;99355.59;;;11.67;76.21
17260;BME280;8746;49.230;9.220;2022-12-29T14:11:17;99347.00;;;11.64;75.85
17260;BME280;8746;49.230;9.220;2022-12-29T14:13:45;99354.22;;;11.60;76.88
17260;BME280;8746;49.230;9.220;2022-12-29T14:16:34;99358.63;;;11.60;76.75
17260;BME280;8746;49.230;9.220;2022-12-29T14:21:36;99376.50;;;11.38;79.72
17260;BME280;8746;49.230;9.220;2022-12-29T14:35:00;99394.22;;;10.66;86.66
17260;BME280;8746;49.230;9.220;2022-12-29T14:37:30;99392.81;;;10.59;87.59
17260;BME280;8746;49.230;9.220;2022-12-29T14:40:15;99401.81;;;10.55;87.79
17260;BME280;8746;49.230;9.220;2022-12-29T14:42:46;99402.66;;;10.55;87.71
17260;BME280;8746;49.230;9.220;2022-12-29T14:47:45;99396.56;;;10.55;87.41
17260;BME280;8746;49.230;9.220;2022-12-29T14:53:01;99428.06;;;10.20;90.53
17260;BME280;8746;49.230;9.220;2022-12-29T14:55:39;99430.34;;;10.08;91.94
17260;BME280;8746;49.230;9.220;2022-12-29T15:00:51;99417.56;;;9.61;98.53
17260;BME280;8746;49.230;9.220;2022-12-29T15:03:22;99425.75;;;9.34;100.00
17260;BME280;8746;49.230;9.220;2022-12-29T15:06:10;99425.63;;;9.17;100.00
17260;BME280;8746;49.230;9.220;2022-12-29T15:08:39;99426.28;;;9.01;100.00
17260;BME280;8746;49.230;9.220;2022-12-29T15:11:20;99441.59;;;8.91;100.00
17260;BME280;8746;49.230;9.220;2022-12-29T15:13:47;99447.22;;;8.82;100.00
17260;BME280;8746;49.230;9.220;2022-12-29T15:16:33;99445.06;;;8.71;100.00
17260;BME280;8746;49.230;9.220;2022-12-29T15:19:00;99454.63;;;8.72;100.00
17260;BME280;8746;49.230;9.220;2022-12-29T15:21:29;99453.97;;;8.67;100.00
17260;BME280;8746;49.230;9.220;2022-12-29T15:23:55;99445.47;;;8.60;100.00
17260;BME280;8746;49.230;9.220;2022-12-29T15:26:21;99453.22;;;8.63;100.00
17260;BME280;8746;49.230;9.220;2022-12-29T15:28:52;99446.22;;;8.64;100.00
17260;BME280;8746;49.230;9.220;2022-12-29T15:31:22;99456.00;;;8.60;100.00
17260;BME280;8746;49.230;9.220;2022-12-29T15:33:53;99451.72;;;8.58;100.00
17260;BME280;8746;49.230;9.220;2022-12-29T15:36:23;99459.66;;;8.56;100.00
17260;BME280;8746;49.230;9.220;2022-12-29T15:38:49;99468.59;;;8.52;100.00
17260;BME280;8746;49.230;9.220;2022-12-29T15:41:37;99473.94;;;8.49;100.00
17260;BME280;8746;49.230;9.220;2022-12-29T15:44:39;99476.75;;;8.44;100.00
17260;BME280;8746;49.230;9.220;2022-12-29T15:49:38;99493.53;;;8.40;100.00
17260;BME280;8746;49.230;9.220;2022-12-29T15:52:07;99490.88;;;8.42;100.00
17260;BME280;8746;49.230;9.220;2022-12-29T15:54:34;99469.94;;;8.39;100.00